Apache Acres, Indiana
Current Conditions -  °F | °C
As of 2:53 PM on Wednesday 17 Dec 2014 (Local Time) from KHUF Reporting Station
Overcast Overcast  
Wind Chill: 19°   Ceiling: 1500
Heat Index: 27°   Visibility: 10mi
Dew Point: 21°   Wind: 8mph
Humidity: 78%   Direction: 280°W
Pressure: 30.27"   Gusts: NA
Location:  39.543°N, 87.3153°W
Report Text: KHUF 171953Z 28007KT 10SM OVC015 M03/M06 A3027 RMK AO2 SLP257 T10281061
Loading
Personal Weather Stations






























Interactive Weather Map New forecast layout! Learn more

10-Day Weather Forecast

Advertisements
Track Severe Weather on mobile